createdAt,value
2019-04-10T00:00:10.847Z,2563
2019-04-10T00:01:12.987Z,2091
2019-04-10T00:02:18.902Z,1862
2019-04-10T00:03:17.628Z,1513
2019-04-10T00:04:19.896Z,1899
2019-04-10T00:05:22.150Z,1544
2019-04-10T00:06:24.423Z,1664
2019-04-10T00:07:26.719Z,1515
2019-04-10T00:08:29.068Z,1455
2019-04-10T00:09:31.342Z,1368
2019-04-10T00:10:33.553Z,1528
2019-04-10T00:11:35.890Z,1461
2019-04-10T00:12:38.067Z,1443
2019-04-10T00:13:40.399Z,1507
2019-04-10T00:14:42.628Z,1452
2019-04-10T00:15:45.102Z,1417
2019-04-10T00:16:47.157Z,1525
2019-04-10T00:17:49.490Z,1467
2019-04-10T00:18:51.776Z,2950
2019-04-10T00:19:54.039Z,2650
2019-04-10T00:20:56.265Z,2706
2019-04-10T00:21:58.526Z,2277
2019-04-10T00:23:00.811Z,2480
2019-04-10T00:24:03.135Z,1897
2019-04-10T00:25:05.468Z,1553
2019-04-10T00:26:07.717Z,1745
2019-04-10T00:27:10.052Z,1461
2019-04-10T00:28:12.191Z,1968
2019-04-10T00:29:14.446Z,2065
2019-04-10T00:31:19.131Z,1722
2019-04-10T00:32:21.335Z,1733
2019-04-10T00:33:23.543Z,1621
2019-04-10T00:34:25.821Z,1550
2019-04-10T00:35:28.094Z,1494
2019-04-10T00:36:30.419Z,1498
2019-04-10T00:37:32.729Z,1556
2019-04-10T00:38:35.321Z,1493
2019-04-10T00:39:37.268Z,1574
2019-04-10T00:40:39.516Z,1554
2019-04-10T00:41:41.723Z,1386
2019-04-10T00:42:48.841Z,1491
2019-04-10T00:43:46.279Z,1436
2019-04-10T00:44:48.639Z,1378
2019-04-10T00:45:50.850Z,1403
2019-04-10T00:46:53.105Z,1451
2019-04-10T00:47:55.384Z,1440
2019-04-10T00:48:57.713Z,1430
2019-04-10T00:49:59.944Z,1368
2019-04-10T00:51:02.337Z,1285
2019-04-10T00:52:04.554Z,1340
2019-04-10T00:53:11.208Z,1409
2019-04-10T00:54:09.069Z,1351
2019-04-10T00:55:11.431Z,1347
2019-04-10T00:56:13.662Z,1302
2019-04-10T00:57:15.855Z,1343
2019-04-10T00:58:18.139Z,1369
2019-04-10T00:59:20.411Z,1285
2019-04-10T01:00:22.757Z,1375
2019-04-10T01:01:24.964Z,1307
2019-04-10T01:02:27.233Z,1390
2019-04-10T01:03:29.500Z,1270
2019-04-10T01:04:31.883Z,1214
2019-04-10T01:05:34.125Z,1295
2019-04-10T01:06:36.774Z,1339
2019-04-10T01:07:38.868Z,1175
2019-04-10T01:08:40.944Z,1314
2019-04-10T01:09:43.213Z,1311
2019-04-10T01:10:45.577Z,1309
2019-04-10T01:11:47.800Z,1272
2019-04-10T01:12:50.090Z,1329
2019-04-10T01:13:52.368Z,1212
2019-04-10T01:14:54.663Z,1111
2019-04-10T01:15:56.992Z,1233
2019-04-10T01:16:59.148Z,1221
2019-04-10T01:18:01.426Z,1242
2019-04-10T01:19:03.687Z,1199
2019-04-10T01:20:05.964Z,1226
2019-04-10T01:21:08.262Z,1227
2019-04-10T01:22:10.509Z,1203
2019-04-10T01:23:12.811Z,1194
2019-04-10T01:24:15.048Z,1217
2019-04-10T01:25:17.323Z,1221
2019-04-10T01:26:19.598Z,1232
2019-04-10T01:27:21.968Z,1349
2019-04-10T01:28:24.134Z,1955
2019-04-10T01:29:26.619Z,2063
2019-04-10T01:30:31.771Z,1994
2019-04-10T01:31:31.017Z,1955
2019-04-10T01:32:33.256Z,1591
2019-04-10T01:33:35.590Z,1680
2019-04-10T01:34:37.781Z,1621
2019-04-10T01:35:40.097Z,1541
2019-04-10T01:36:42.559Z,1444
2019-04-10T01:37:44.618Z,1484
2019-04-10T01:38:46.879Z,1383
2019-04-10T01:39:49.173Z,1448
2019-04-10T01:40:51.473Z,1357
2019-04-10T01:41:53.725Z,1400
2019-04-10T01:42:56.201Z,1386
2019-04-10T01:43:58.274Z,1322
2019-04-10T01:45:00.546Z,1320
2019-04-10T01:46:02.794Z,1413
2019-04-10T01:47:05.073Z,1329
2019-04-10T01:48:07.365Z,1277
2019-04-10T01:49:09.611Z,1290
2019-04-10T01:50:11.987Z,1319
2019-04-10T01:51:14.172Z,1230
2019-04-10T01:52:16.446Z,1336
2019-04-10T01:53:18.876Z,1543
2019-04-10T01:54:20.997Z,1509
2019-04-10T01:55:23.273Z,1421
2019-04-10T01:56:25.552Z,1393
2019-04-10T01:57:27.928Z,1340
2019-04-10T01:58:30.113Z,1322
2019-04-10T01:59:32.347Z,1162
2019-04-10T02:00:34.673Z,1316
2019-04-10T02:01:36.947Z,1327
2019-04-10T02:02:39.217Z,1327
2019-04-10T02:03:41.446Z,1291
2019-04-10T02:04:43.717Z,1183
2019-04-10T02:05:46.131Z,1256
2019-04-10T02:06:51.705Z,1140
2019-04-10T02:07:50.673Z,1171
2019-04-10T02:08:52.932Z,1177
2019-04-10T02:09:55.202Z,1212
2019-04-10T02:10:57.534Z,1192
2019-04-10T02:12:00.441Z,1282
2019-04-10T02:13:01.994Z,1216
2019-04-10T02:14:04.262Z,1136
2019-04-10T02:15:06.572Z,1213
2019-04-10T02:16:08.896Z,1121
2019-04-10T02:17:11.106Z,1230
2019-04-10T02:18:13.349Z,1178
2019-04-10T02:19:15.711Z,1201
2019-04-10T02:20:17.932Z,1185
2019-04-10T02:21:20.254Z,1174
2019-04-10T02:22:24.049Z,1165
2019-04-10T02:23:24.738Z,1184
2019-04-10T02:24:27.001Z,1141
2019-04-10T02:25:29.275Z,1107
2019-04-10T02:26:31.544Z,1199
2019-04-10T02:27:33.850Z,1194
2019-04-10T02:28:36.109Z,1154
2019-04-10T02:29:38.417Z,1064
2019-04-10T02:30:40.677Z,1121
2019-04-10T02:31:42.919Z,1122
2019-04-10T02:32:45.224Z,1170
2019-04-10T02:33:47.491Z,1153
2019-04-10T02:34:49.989Z,1108
2019-04-10T02:35:52.017Z,1142
2019-04-10T02:36:54.405Z,1208
2019-04-10T02:37:56.531Z,1077
2019-04-10T02:38:58.833Z,1219
2019-04-10T02:40:01.082Z,1195
2019-04-10T02:41:03.393Z,1214
2019-04-10T02:42:05.712Z,1181
2019-04-10T02:43:07.896Z,1154
2019-04-10T02:44:10.173Z,1140
2019-04-10T02:45:12.445Z,1086
2019-04-10T02:46:14.732Z,1136
2019-04-10T02:47:17.004Z,1123
2019-04-10T02:48:19.297Z,1112
2019-04-10T02:49:21.590Z,1103
2019-04-10T02:50:23.804Z,1087
2019-04-10T02:51:26.141Z,1029
2019-04-10T02:52:28.384Z,1059
2019-04-10T02:53:30.860Z,1082
2019-04-10T02:54:32.973Z,1018
2019-04-10T02:55:35.229Z,1077
2019-04-10T02:56:37.425Z,1043
2019-04-10T02:57:39.755Z,1055
2019-04-10T02:58:42.045Z,1007
2019-04-10T02:59:44.352Z,1063
2019-04-10T03:00:46.518Z,1015
2019-04-10T03:01:48.774Z,1002
2019-04-10T03:02:51.160Z,1006
2019-04-10T03:03:53.317Z,1061
2019-04-10T03:04:55.584Z,1050
2019-04-10T03:05:57.882Z,1020
2019-04-10T03:07:00.264Z,1066
2019-04-10T03:08:02.499Z,1041
2019-04-10T03:09:04.683Z,1009
2019-04-10T03:10:07.042Z,1013
2019-04-10T03:11:09.246Z,1041
2019-04-10T03:12:11.594Z,1024
2019-04-10T03:13:13.873Z,1073
2019-04-10T03:14:16.308Z,1050
2019-04-10T03:15:18.395Z,1095
2019-04-10T03:16:20.670Z,1060
2019-04-10T03:17:22.950Z,1080
2019-04-10T03:18:25.211Z,986
2019-04-10T03:19:27.520Z,1071
2019-04-10T03:20:29.764Z,1034
2019-04-10T03:21:32.357Z,1049
2019-04-10T03:22:34.374Z,1030
2019-04-10T03:23:36.619Z,1004
2019-04-10T03:24:38.907Z,1020
2019-04-10T03:25:41.121Z,1057
2019-04-10T03:26:43.496Z,1021
2019-04-10T03:27:45.683Z,1054
2019-04-10T03:28:47.923Z,988
2019-04-10T03:29:50.284Z,1020
2019-04-10T03:30:52.670Z,993
2019-04-10T03:31:54.754Z,1027
2019-04-10T03:32:57.021Z,1161
2019-04-10T03:33:59.280Z,1178
2019-04-10T03:35:04.629Z,1203
2019-04-10T03:36:03.843Z,1164
2019-04-10T03:37:06.229Z,1207
2019-04-10T03:38:08.365Z,1167
2019-04-10T03:39:10.644Z,1200
2019-04-10T03:40:13.200Z,1179
2019-04-10T03:41:15.345Z,1183
2019-04-10T03:42:17.608Z,1139
2019-04-10T03:43:20.031Z,1129
2019-04-10T03:44:21.997Z,1138
2019-04-10T03:45:24.376Z,1153
2019-04-10T03:46:26.573Z,1080
2019-04-10T03:47:28.849Z,1204
2019-04-10T03:48:31.164Z,1340
2019-04-10T03:49:33.418Z,1329
2019-04-10T03:50:35.650Z,1288
2019-04-10T03:51:37.932Z,1297
2019-04-10T03:52:40.317Z,1294
2019-04-10T03:53:42.484Z,1373
2019-04-10T03:54:44.826Z,1452
2019-04-10T03:55:47.021Z,1478
2019-04-10T03:56:49.291Z,1408
2019-04-10T03:57:51.647Z,1475
2019-04-10T03:58:53.908Z,1474
2019-04-10T03:59:56.106Z,1429
2019-04-10T04:00:58.492Z,1424
2019-04-10T04:02:00.724Z,1426
2019-04-10T04:03:02.918Z,1298
2019-04-10T04:04:05.256Z,1322
2019-04-10T04:05:07.816Z,1349
2019-04-10T04:06:09.733Z,1331
2019-04-10T04:07:12.040Z,1268
2019-04-10T04:08:14.292Z,1281
2019-04-10T04:09:16.550Z,1274
2019-04-10T04:10:21.927Z,1130
2019-04-10T04:11:21.155Z,1304
2019-04-10T04:12:23.404Z,1258
2019-04-10T04:13:25.715Z,1219
2019-04-10T04:14:27.929Z,1238
2019-04-10T04:15:30.277Z,1247
2019-04-10T04:16:32.485Z,1210
2019-04-10T04:17:34.735Z,1210
2019-04-10T04:18:37.044Z,1205
2019-04-10T04:19:39.274Z,1213
2019-04-10T04:20:41.678Z,1147
2019-04-10T04:21:43.833Z,1210
2019-04-10T04:22:46.098Z,1230
2019-04-10T04:23:48.360Z,1155
2019-04-10T04:24:50.629Z,1131
2019-04-10T04:25:52.904Z,1132
2019-04-10T04:26:55.264Z,1194
2019-04-10T04:27:57.843Z,1140
2019-04-10T04:28:59.827Z,1169
2019-04-10T04:30:02.035Z,1105
2019-04-10T04:31:04.291Z,1116
2019-04-10T04:32:06.567Z,1070
2019-04-10T04:33:08.829Z,1119
2019-04-10T04:34:11.106Z,1200
2019-04-10T04:35:13.349Z,1120
2019-04-10T04:36:15.677Z,1112
2019-04-10T04:37:17.932Z,1103
2019-04-10T04:38:20.229Z,1031
2019-04-10T04:39:22.537Z,1108
2019-04-10T04:40:24.717Z,994
2019-04-10T04:41:26.984Z,1041
2019-04-10T04:42:29.282Z,1112
2019-04-10T04:43:31.545Z,1122
2019-04-10T04:44:33.862Z,1114
2019-04-10T04:45:36.190Z,1040
2019-04-10T04:46:38.392Z,1064
2019-04-10T04:47:40.665Z,1098
2019-04-10T04:48:42.908Z,1086
2019-04-10T04:49:45.468Z,1074
2019-04-10T04:50:47.530Z,1049
2019-04-10T04:51:49.772Z,1079
2019-04-10T04:52:52.003Z,1057
2019-04-10T04:53:54.308Z,1078
2019-04-10T04:54:56.596Z,1082
2019-04-10T04:55:58.823Z,1001
2019-04-10T04:57:01.095Z,1080
2019-04-10T04:58:03.362Z,1050
2019-04-10T04:59:05.710Z,1080
2019-04-10T05:00:07.904Z,1050
2019-04-10T05:01:10.273Z,1074
2019-04-10T05:02:12.455Z,1049
2019-04-10T05:03:14.734Z,1086
2019-04-10T05:04:17.088Z,1087
2019-04-10T05:05:19.248Z,1065
2019-04-10T05:06:21.638Z,1093
2019-04-10T05:07:23.809Z,1080
2019-04-10T05:08:26.161Z,1107
2019-04-10T05:09:28.439Z,1111
2019-04-10T05:10:30.640Z,1035
2019-04-10T05:11:32.989Z,1103
2019-04-10T05:12:35.311Z,1055
2019-04-10T05:13:37.533Z,1047
2019-04-10T05:14:39.993Z,1045
2019-04-10T05:15:42.073Z,1028
2019-04-10T05:16:44.315Z,1148
2019-04-10T05:17:46.544Z,1351
2019-04-10T05:18:48.818Z,1109
2019-04-10T05:19:51.112Z,1272
2019-04-10T05:20:53.342Z,1377
2019-04-10T05:21:55.727Z,1467
2019-04-10T05:22:57.922Z,1420
2019-04-10T05:24:00.309Z,1304
2019-04-10T05:25:02.579Z,1288
2019-04-10T05:26:06.526Z,1212
2019-04-10T05:27:07.007Z,1194
2019-04-10T05:28:09.327Z,1150
2019-04-10T05:29:11.533Z,1101
2019-04-10T05:30:13.795Z,1096
2019-04-10T05:31:16.068Z,1041
2019-04-10T05:32:18.385Z,1033
2019-04-10T05:33:20.614Z,1009
2019-04-10T05:34:22.936Z,1009
2019-04-10T05:35:25.210Z,994
2019-04-10T05:36:27.442Z,946
2019-04-10T05:37:29.743Z,949
2019-04-10T05:38:32.049Z,930
2019-04-10T05:39:34.319Z,903
2019-04-10T05:40:36.576Z,895
2019-04-10T05:41:38.883Z,894
2019-04-10T05:42:41.143Z,898
2019-04-10T05:43:43.339Z,880
2019-04-10T05:44:45.599Z,872
2019-04-10T05:45:49.071Z,860
2019-04-10T05:46:50.288Z,844
2019-04-10T05:47:52.436Z,842
2019-04-10T05:48:54.727Z,844
2019-04-10T05:49:57.015Z,858
2019-04-10T05:50:59.257Z,847
2019-04-10T05:52:01.529Z,842
2019-04-10T05:53:03.836Z,837
2019-04-10T05:54:06.101Z,820
2019-04-10T05:55:08.681Z,810
2019-04-10T05:56:10.648Z,817
2019-04-10T05:57:12.878Z,803
2019-04-10T05:58:15.160Z,797
2019-04-10T05:59:17.659Z,804
2019-04-10T06:00:19.696Z,806
2019-04-10T06:01:22.252Z,768
2019-04-10T06:02:24.322Z,774
2019-04-10T06:03:26.503Z,797
2019-04-10T06:04:28.819Z,808
2019-04-10T06:05:31.091Z,797
2019-04-10T06:06:33.358Z,836
2019-04-10T06:07:35.612Z,834
2019-04-10T06:08:38.356Z,819
2019-04-10T06:09:40.132Z,822
2019-04-10T06:10:42.455Z,831
2019-04-10T06:11:44.688Z,828
2019-04-10T06:12:49.255Z,817
2019-04-10T06:13:49.435Z,812
2019-04-10T06:14:51.700Z,808
2019-04-10T06:15:53.759Z,817
2019-04-10T06:16:56.117Z,801
2019-04-10T06:17:58.411Z,794
2019-04-10T06:19:00.607Z,778
2019-04-10T06:20:02.866Z,798
2019-04-10T06:21:05.196Z,786
2019-04-10T06:22:07.420Z,778
2019-04-10T06:23:09.707Z,794
2019-04-10T06:24:11.970Z,776
2019-04-10T06:25:14.275Z,773
2019-04-10T06:26:16.518Z,775
2019-04-10T06:27:18.783Z,801
2019-04-10T06:28:21.062Z,800
2019-04-10T06:29:23.323Z,805
2019-04-10T06:30:25.771Z,788
2019-04-10T06:31:27.880Z,792
2019-04-10T06:32:30.249Z,827
2019-04-10T06:33:32.399Z,826
2019-04-10T06:34:34.698Z,787
2019-04-10T06:35:36.969Z,775
2019-04-10T06:36:39.291Z,777
2019-04-10T06:37:41.506Z,770
2019-04-10T06:38:43.762Z,765
2019-04-10T06:39:50.434Z,774
2019-04-10T06:40:48.314Z,757
2019-04-10T06:41:50.647Z,756
2019-04-10T06:42:52.845Z,756
2019-04-10T06:43:55.119Z,746
2019-04-10T06:44:57.447Z,767
2019-04-10T06:45:59.759Z,758
2019-04-10T06:47:02.002Z,764
2019-04-10T06:48:04.226Z,753
2019-04-10T06:49:06.725Z,770
2019-04-10T06:50:08.772Z,762
2019-04-10T06:51:11.123Z,770
2019-04-10T06:52:13.316Z,766
2019-04-10T06:53:15.615Z,763
2019-04-10T06:54:18.030Z,780
2019-04-10T06:55:20.244Z,770
2019-04-10T06:56:22.395Z,771
2019-04-10T06:57:24.740Z,765
2019-04-10T06:58:26.985Z,770
2019-04-10T06:59:29.232Z,774
2019-04-10T07:00:31.476Z,757
2019-04-10T07:01:33.767Z,770
2019-04-10T07:02:36.219Z,774
2019-04-10T07:03:38.320Z,780
2019-04-10T07:04:41.069Z,770
2019-04-10T07:05:42.870Z,762
2019-04-10T07:06:45.222Z,771
2019-04-10T07:07:47.588Z,774
2019-04-10T07:08:49.717Z,774
2019-04-10T07:09:51.983Z,769
2019-04-10T07:10:54.319Z,793
2019-04-10T07:11:56.514Z,787
2019-04-10T07:12:58.824Z,787
2019-04-10T07:14:01.034Z,776
2019-04-10T07:15:03.459Z,776
2019-04-10T07:16:05.580Z,768
2019-04-10T07:17:07.932Z,768
2019-04-10T07:18:10.245Z,785
2019-04-10T07:19:12.437Z,776
2019-04-10T07:20:14.646Z,776
2019-04-10T07:21:16.986Z,772
2019-04-10T07:22:19.199Z,771
2019-04-10T07:23:21.557Z,778
2019-04-10T07:24:23.854Z,752
2019-04-10T07:25:26.038Z,757
2019-04-10T07:26:28.320Z,759
2019-04-10T07:27:30.576Z,761
2019-04-10T07:28:32.837Z,765
2019-04-10T07:29:35.285Z,777
2019-04-10T07:30:37.471Z,763
2019-04-10T07:31:39.669Z,783
2019-04-10T07:32:42.145Z,783
2019-04-10T07:33:44.250Z,780
2019-04-10T07:34:46.461Z,792
2019-04-10T07:35:48.988Z,784
2019-04-10T07:36:51.683Z,771
2019-04-10T07:37:53.308Z,758
2019-04-10T07:38:55.563Z,777
2019-04-10T07:39:58.045Z,760
2019-04-10T07:41:00.176Z,777
2019-04-10T07:42:02.359Z,766
2019-04-10T07:43:04.636Z,758
2019-04-10T07:44:07.016Z,762
2019-04-10T07:45:09.373Z,764
2019-04-10T07:46:11.452Z,762
2019-04-10T07:47:13.729Z,757
2019-04-10T07:48:16.329Z,748
2019-04-10T07:49:18.409Z,780
2019-04-10T07:50:20.658Z,781
2019-04-10T07:51:22.833Z,762
2019-04-10T07:52:25.143Z,771
2019-04-10T07:53:27.379Z,760
2019-04-10T07:54:29.652Z,771
2019-04-10T07:55:31.924Z,765
2019-04-10T07:56:35.217Z,758
2019-04-10T07:57:36.504Z,780
2019-04-10T07:58:38.829Z,785
2019-04-10T07:59:41.001Z,776
2019-04-10T08:00:43.269Z,785
2019-04-10T08:01:45.578Z,783
2019-04-10T08:02:47.876Z,784
2019-04-10T08:03:50.109Z,785
2019-04-10T08:04:52.476Z,785
2019-04-10T08:05:54.625Z,784
2019-04-10T08:06:57.016Z,794
2019-04-10T08:07:59.257Z,794
2019-04-10T08:09:01.442Z,785
2019-04-10T08:10:03.753Z,772
2019-04-10T08:11:06.033Z,768
2019-04-10T08:12:08.324Z,778
2019-04-10T08:13:10.529Z,765
2019-04-10T08:14:12.816Z,775
2019-04-10T08:15:15.234Z,794
2019-04-10T08:16:17.348Z,772
2019-04-10T08:17:19.632Z,744
2019-04-10T08:18:22.002Z,739
2019-04-10T08:19:24.204Z,748
2019-04-10T08:20:26.505Z,759
2019-04-10T08:21:28.722Z,759
2019-04-10T08:22:31.008Z,760
2019-04-10T08:23:33.242Z,742
2019-04-10T08:24:35.838Z,747
2019-04-10T08:25:37.979Z,752
2019-04-10T08:26:40.256Z,760
2019-04-10T08:27:42.349Z,761
2019-04-10T08:28:44.716Z,745
2019-04-10T08:29:46.943Z,751
2019-04-10T08:30:49.159Z,762
2019-04-10T08:31:51.499Z,769
2019-04-10T08:32:53.694Z,775
2019-04-10T08:33:56.047Z,792
2019-04-10T08:34:58.531Z,770
2019-04-10T08:36:00.516Z,747
2019-04-10T08:37:08.555Z,746
2019-04-10T08:38:05.071Z,765
2019-04-10T08:39:07.329Z,741
2019-04-10T08:40:09.697Z,769
2019-04-10T08:41:11.873Z,760
2019-04-10T08:42:14.292Z,748
2019-04-10T08:43:16.458Z,747
2019-04-10T08:44:18.687Z,746
2019-04-10T08:45:21.065Z,765
2019-04-10T08:46:23.234Z,783
2019-04-10T08:47:25.511Z,780
2019-04-10T08:48:27.757Z,765
2019-04-10T08:49:30.090Z,754
2019-04-10T08:50:32.338Z,746
2019-04-10T08:51:34.632Z,738
2019-04-10T08:52:36.866Z,737
2019-04-10T08:53:39.142Z,755
2019-04-10T08:54:41.536Z,753
2019-04-10T08:55:43.719Z,753
2019-04-10T08:56:45.998Z,769
2019-04-10T08:57:48.325Z,778
2019-04-10T08:58:50.548Z,750
2019-04-10T08:59:52.858Z,742
2019-04-10T09:00:55.069Z,742
2019-04-10T09:01:57.299Z,742
2019-04-10T09:02:59.625Z,756
2019-04-10T09:04:01.922Z,760
2019-04-10T09:05:04.455Z,755
2019-04-10T09:06:06.578Z,763
2019-04-10T09:07:10.061Z,764
2019-04-10T09:08:10.952Z,757
2019-04-10T09:09:13.294Z,749
2019-04-10T09:10:15.483Z,742
2019-04-10T09:11:17.793Z,750
2019-04-10T09:12:20.016Z,755
2019-04-10T09:13:22.314Z,746
2019-04-10T09:14:24.582Z,752
2019-04-10T09:15:26.835Z,744
2019-04-10T09:16:29.171Z,751
2019-04-10T09:17:31.418Z,744
2019-04-10T09:18:33.723Z,742
2019-04-10T09:19:36.026Z,747
2019-04-10T09:20:38.388Z,744
2019-04-10T09:21:40.492Z,742
2019-04-10T09:22:42.977Z,746
2019-04-10T09:23:45.015Z,735
2019-04-10T09:24:47.363Z,747
2019-04-10T09:25:49.646Z,746
2019-04-10T09:26:51.850Z,747
2019-04-10T09:27:54.113Z,749
2019-04-10T09:28:56.367Z,737
2019-04-10T09:29:58.744Z,747
2019-04-10T09:31:01.106Z,764
2019-04-10T09:32:03.257Z,797
2019-04-10T09:33:05.485Z,794
2019-04-10T09:34:07.749Z,764
2019-04-10T09:35:10.177Z,749
2019-04-10T09:36:12.378Z,741
2019-04-10T09:37:14.708Z,751
2019-04-10T09:38:16.835Z,756
2019-04-10T09:39:19.134Z,747
2019-04-10T09:40:21.613Z,746
2019-04-10T09:41:23.670Z,744
2019-04-10T09:42:25.932Z,738
2019-04-10T09:43:28.333Z,739
2019-04-10T09:44:30.458Z,744
2019-04-10T09:45:32.769Z,751
2019-04-10T09:46:35.027Z,755
2019-04-10T09:47:37.280Z,758
2019-04-10T09:48:39.612Z,776
2019-04-10T09:49:41.940Z,751
2019-04-10T09:50:44.214Z,785
2019-04-10T09:51:46.408Z,785
2019-04-10T09:52:48.675Z,750
2019-04-10T09:53:50.928Z,743
2019-04-10T09:54:53.282Z,733
2019-04-10T09:55:55.550Z,739
2019-04-10T09:56:57.740Z,738
2019-04-10T09:58:00.041Z,739
2019-04-10T09:59:02.365Z,728
2019-04-10T10:00:04.893Z,714
2019-04-10T10:01:06.857Z,739
2019-04-10T10:02:09.143Z,728
2019-04-10T10:03:11.383Z,721
2019-04-10T10:04:13.652Z,730
2019-04-10T10:05:15.969Z,737
2019-04-10T10:06:18.212Z,718
2019-04-10T10:07:22.531Z,726
2019-04-10T10:08:22.721Z,753
2019-04-10T10:09:25.001Z,758
2019-04-10T10:10:27.273Z,762
2019-04-10T10:11:29.557Z,776
2019-04-10T10:12:31.866Z,769
2019-04-10T10:13:34.215Z,745
2019-04-10T10:14:36.382Z,752
2019-04-10T10:15:38.613Z,735
2019-04-10T10:16:40.939Z,733
2019-04-10T10:17:43.210Z,752
2019-04-10T10:18:45.448Z,746
2019-04-10T10:19:47.732Z,752
2019-04-10T10:20:50.093Z,744
2019-04-10T10:21:52.429Z,748
2019-04-10T10:22:54.603Z,755
2019-04-10T10:23:56.789Z,748
2019-04-10T10:24:59.215Z,751
2019-04-10T10:26:01.386Z,749
2019-04-10T10:27:03.779Z,792
2019-04-10T10:28:05.938Z,819
2019-04-10T10:29:08.447Z,785
2019-04-10T10:30:10.440Z,768
2019-04-10T10:31:12.696Z,765
2019-04-10T10:32:14.960Z,763
2019-04-10T10:33:17.387Z,764
2019-04-10T10:34:19.533Z,767
2019-04-10T10:35:21.788Z,769
2019-04-10T10:36:24.058Z,776
2019-04-10T10:37:26.377Z,761
2019-04-10T10:38:28.646Z,771
2019-04-10T10:39:30.875Z,760
2019-04-10T10:40:33.155Z,762
2019-04-10T10:41:35.427Z,787
2019-04-10T10:42:37.682Z,772
2019-04-10T10:43:39.953Z,748
2019-04-10T10:45:44.521Z,748
2019-04-10T10:46:46.861Z,753
2019-04-10T10:47:49.040Z,746
2019-04-10T10:48:51.484Z,748
2019-04-10T10:49:53.594Z,745
2019-04-10T10:50:55.894Z,758
2019-04-10T10:51:58.137Z,759
2019-04-10T10:53:00.518Z,747
2019-04-10T10:54:02.769Z,764
2019-04-10T10:55:05.039Z,766
2019-04-10T10:56:07.419Z,791
2019-04-10T10:57:09.689Z,770
2019-04-10T10:58:11.850Z,762
2019-04-10T10:59:14.161Z,755
2019-04-10T11:00:16.440Z,771
2019-04-10T11:01:18.699Z,767
2019-04-10T11:02:20.965Z,755
2019-04-10T11:03:23.306Z,771
2019-04-10T11:04:25.652Z,781
2019-04-10T11:05:27.848Z,775
2019-04-10T11:06:34.771Z,767
2019-04-10T11:07:32.400Z,771
2019-04-10T11:08:34.606Z,771
2019-04-10T11:09:36.835Z,758
2019-04-10T11:10:39.136Z,758
2019-04-10T11:11:41.469Z,760
2019-04-10T11:12:43.709Z,749
2019-04-10T11:13:46.130Z,752
2019-04-10T11:14:48.309Z,756
2019-04-10T11:15:50.716Z,748
2019-04-10T11:16:52.742Z,758
2019-04-10T11:17:55.092Z,739
2019-04-10T11:18:57.290Z,744
2019-04-10T11:19:59.557Z,744
2019-04-10T11:21:01.876Z,762
2019-04-10T11:22:04.168Z,751
2019-04-10T11:23:06.408Z,752
2019-04-10T11:24:08.655Z,748
2019-04-10T11:25:11.022Z,735
2019-04-10T11:26:13.225Z,735
2019-04-10T11:27:15.537Z,743
2019-04-10T11:28:17.771Z,749
2019-04-10T11:29:20.002Z,748
2019-04-10T11:30:22.277Z,755
2019-04-10T11:31:24.555Z,749
2019-04-10T11:32:26.892Z,739
2019-04-10T11:33:29.101Z,751
2019-04-10T11:34:31.354Z,755
2019-04-10T11:35:33.629Z,755
2019-04-10T11:36:36.771Z,748
2019-04-10T11:37:38.194Z,751
2019-04-10T11:38:40.618Z,760
2019-04-10T11:39:42.815Z,751
2019-04-10T11:40:45.127Z,760
2019-04-10T11:41:47.576Z,757
2019-04-10T11:42:49.630Z,785
2019-04-10T11:43:52.039Z,812
2019-04-10T11:44:54.207Z,797
2019-04-10T11:45:56.463Z,792
2019-04-10T11:46:58.810Z,780
2019-04-10T11:48:00.987Z,785
2019-04-10T11:49:03.295Z,819
2019-04-10T11:50:05.558Z,806
2019-04-10T11:51:07.896Z,794
2019-04-10T11:52:10.109Z,789
2019-04-10T11:53:12.393Z,790
2019-04-10T11:54:14.699Z,798
2019-04-10T11:55:17.129Z,801
2019-04-10T11:56:19.184Z,794
2019-04-10T11:57:21.712Z,785
2019-04-10T11:58:23.726Z,802
2019-04-10T11:59:25.996Z,789
2019-04-10T12:00:28.266Z,810
2019-04-10T12:01:30.635Z,815
2019-04-10T12:02:32.811Z,817
2019-04-10T12:03:35.099Z,812
2019-04-10T12:04:38.723Z,819
2019-04-10T12:05:39.644Z,794
2019-04-10T12:06:42.123Z,803
2019-04-10T12:07:44.184Z,803
2019-04-10T12:08:47.340Z,817
2019-04-10T12:09:48.834Z,840
2019-04-10T12:10:51.092Z,831
2019-04-10T12:11:53.252Z,816
2019-04-10T12:12:55.524Z,819
2019-04-10T12:13:57.893Z,810
2019-04-10T12:15:00.113Z,813
2019-04-10T12:16:02.346Z,812
2019-04-10T12:17:04.796Z,826
2019-04-10T12:18:06.992Z,817
2019-04-10T12:19:09.169Z,824
2019-04-10T12:20:11.581Z,807
2019-04-10T12:21:13.709Z,806
2019-04-10T12:22:16.582Z,819
2019-04-10T12:23:19.045Z,819
2019-04-10T12:24:20.669Z,813
2019-04-10T12:25:22.822Z,796
2019-04-10T12:26:25.166Z,805
2019-04-10T12:27:27.409Z,793
2019-04-10T12:28:29.718Z,798
2019-04-10T12:29:31.889Z,778
2019-04-10T12:30:34.465Z,777
2019-04-10T12:31:36.587Z,800
2019-04-10T12:32:38.964Z,789
2019-04-10T12:33:40.984Z,794
2019-04-10T12:34:43.286Z,797
2019-04-10T12:35:45.545Z,796
2019-04-10T12:36:47.877Z,801
2019-04-10T12:37:50.080Z,829
2019-04-10T12:38:52.442Z,821
2019-04-10T12:39:54.705Z,812
2019-04-10T12:40:57.090Z,819
2019-04-10T12:41:59.392Z,811
2019-04-10T12:43:01.569Z,804
2019-04-10T12:44:03.829Z,825
2019-04-10T12:45:06.355Z,827
2019-04-10T12:46:08.491Z,803
2019-04-10T12:47:10.922Z,793
2019-04-10T12:48:13.040Z,802
2019-04-10T12:49:15.305Z,788
2019-04-10T12:50:17.619Z,802
2019-04-10T12:51:20.045Z,791
2019-04-10T12:52:25.013Z,787
2019-04-10T12:53:24.411Z,795
2019-04-10T12:54:26.700Z,792
2019-04-10T12:55:28.948Z,787
2019-04-10T12:56:31.322Z,789
2019-04-10T12:57:33.749Z,778
2019-04-10T12:58:35.795Z,780
2019-04-10T12:59:38.119Z,801
2019-04-10T13:00:40.457Z,780
2019-04-10T13:01:46.528Z,784
2019-04-10T13:02:45.100Z,784
2019-04-10T13:03:47.180Z,791
2019-04-10T13:04:50.882Z,786
2019-04-10T13:05:51.777Z,794
2019-04-10T13:06:55.098Z,810
2019-04-10T13:07:56.325Z,796
2019-04-10T13:08:58.511Z,785
2019-04-10T13:10:00.792Z,783
2019-04-10T13:11:03.053Z,790
2019-04-10T13:12:05.458Z,799
2019-04-10T13:13:07.820Z,814
2019-04-10T13:14:09.904Z,810
2019-04-10T13:15:12.180Z,794
2019-04-10T13:16:14.498Z,808
2019-04-10T13:17:16.702Z,794
2019-04-10T13:19:21.269Z,791
2019-04-10T13:20:23.521Z,781
2019-04-10T13:21:25.904Z,787
2019-04-10T13:22:28.083Z,779
2019-04-10T13:23:30.336Z,786
2019-04-10T13:24:32.598Z,791
2019-04-10T13:25:34.887Z,797
2019-04-10T13:26:37.544Z,786
2019-04-10T13:27:39.432Z,797
2019-04-10T13:28:41.708Z,775
2019-04-10T13:29:44.001Z,785
2019-04-10T13:30:47.320Z,772
2019-04-10T13:31:48.527Z,771
2019-04-10T13:32:51.080Z,780
2019-04-10T13:33:53.070Z,765
2019-04-10T13:34:55.358Z,776
2019-04-10T13:35:57.668Z,758
2019-04-10T13:38:04.483Z,767
2019-04-10T13:39:04.440Z,770
2019-04-10T13:40:06.717Z,760
2019-04-10T13:41:09.181Z,758
2019-04-10T13:42:11.238Z,750
2019-04-10T13:43:14.783Z,755
2019-04-10T13:44:15.896Z,749
2019-04-10T13:45:18.089Z,755
2019-04-10T13:46:20.419Z,755
2019-04-10T13:47:22.734Z,749
2019-04-10T13:48:24.996Z,749
2019-04-10T13:49:27.255Z,743
2019-04-10T13:50:29.575Z,751
2019-04-10T13:51:31.917Z,748
2019-04-10T13:52:34.088Z,768
2019-04-10T13:53:36.405Z,743
2019-04-10T13:54:38.650Z,738
2019-04-10T13:55:41.010Z,749
2019-04-10T13:56:43.150Z,751
2019-04-10T13:57:45.452Z,753
2019-04-10T13:58:47.789Z,742
2019-04-10T13:59:50.024Z,743
2019-04-10T14:00:52.304Z,763
2019-04-10T14:01:54.555Z,758
2019-04-10T14:02:56.812Z,760
2019-04-10T14:03:59.063Z,760
2019-04-10T14:05:03.226Z,745
2019-04-10T14:06:03.897Z,754
2019-04-10T14:07:06.012Z,765
2019-04-10T14:08:08.162Z,754
2019-04-10T14:09:10.606Z,743
2019-04-10T14:10:12.703Z,753